Time;durP1;ratioP1;P1;durP2;ratioP2;P2;SDS_P1;SDS_P2;PMS_P1;PMS_P2;Temp;Humidity;BMP_temperature;BMP_pressure;BME280_temperature;BME280_humidity;BME280_pressure;Samples;Min_cycle;Max_cycle;Signal;HPM_P1;HPM_P2
2022/04/25 00:02:19;;;;;;;11.82;3.42;;;;;;;;;;4442426;32;20258;-53
2022/04/25 00:04:44;;;;;;;12.43;4.53;;;;;;;;;;4447135;32;20317;-53
2022/04/25 00:07:09;;;;;;;13.60;4.45;;;;;;;;;;4441489;32;20294;-54
2022/04/25 00:09:35;;;;;;;13.85;4.12;;;;;;;;;;4435636;32;20729;-53
2022/04/25 00:12:00;;;;;;;14.55;4.80;;;;;;;;;;4428676;32;20232;-54
2022/04/25 00:14:26;;;;;;;13.95;3.55;;;;;;;;;;4447575;32;20733;-54
2022/04/25 00:16:56;;;;;;;13.32;3.40;;;;;;;;;;4459221;32;20332;-52
2022/04/25 00:19:24;;;;;;;9.20;3.67;;;;;;;;;;4451238;32;20244;-53
2022/04/25 00:21:51;;;;;;;10.98;3.58;;;;;;;;;;4450771;32;20291;-55
2022/04/25 00:24:20;;;;;;;6.78;3.03;;;;;;;;;;4443909;32;20276;-55
2022/04/25 00:26:45;;;;;;;7.95;3.12;;;;;;;;;;4444156;32;20323;-54
2022/04/25 00:29:12;;;;;;;15.65;2.85;;;;;;;;;;4446751;32;20341;-53
2022/04/25 00:31:39;;;;;;;15.02;2.87;;;;;;;;;;4446876;32;20702;-53
2022/04/25 00:34:04;;;;;;;7.53;2.92;;;;;;;;;;4441146;32;20227;-52
2022/04/25 00:36:29;;;;;;;4.75;2.45;;;;;;;;;;4449564;32;20586;-54
2022/04/25 00:38:55;;;;;;;21.98;4.32;;;;;;;;;;4446704;32;20299;-53
2022/04/25 00:41:20;;;;;;;13.25;2.97;;;;;;;;;;4449372;32;20228;-53
2022/04/25 00:43:46;;;;;;;12.52;3.03;;;;;;;;;;4446266;32;20283;-54
2022/04/25 00:46:22;;;;;;;8.27;2.37;;;;;;;;;;4448866;32;20243;-55
2022/04/25 00:48:48;;;;;;;6.95;2.55;;;;;;;;;;4447993;32;20406;-55
2022/04/25 00:51:14;;;;;;;9.98;2.83;;;;;;;;;;4442620;32;20256;-55
2022/04/25 00:53:39;;;;;;;14.10;3.05;;;;;;;;;;4439808;32;20376;-55
2022/04/25 00:56:07;;;;;;;8.25;3.15;;;;;;;;;;4449204;32;20296;-55
2022/04/25 00:58:33;;;;;;;14.73;3.83;;;;;;;;;;4443051;32;20216;-54
2022/04/25 01:00:59;;;;;;;16.33;3.22;;;;;;;;;;4450031;32;20255;-54
2022/04/25 01:03:24;;;;;;;14.30;2.62;;;;;;;;;;4445502;32;20281;-54
2022/04/25 01:05:50;;;;;;;11.98;3.00;;;;;;;;;;4449084;32;20311;-55
2022/04/25 01:08:16;;;;;;;17.87;3.45;;;;;;;;;;4448113;32;20407;-54
2022/04/25 01:10:43;;;;;;;6.55;2.53;;;;;;;;;;4420735;32;20321;-53
2022/04/25 01:13:11;;;;;;;8.57;2.65;;;;;;;;;;4446218;32;20270;-54
2022/04/25 01:15:37;;;;;;;6.12;2.10;;;;;;;;;;4448143;32;20762;-55
2022/04/25 01:18:02;;;;;;;8.10;4.30;;;;;;;;;;4430534;32;20256;-54
2022/04/25 01:20:28;;;;;;;12.15;2.47;;;;;;;;;;4449645;32;20296;-53
2022/04/25 01:28:38;;;;;;;8.68;2.95;;;;;;;;;;4449209;32;20663;-54
2022/04/25 01:31:04;;;;;;;17.08;3.35;;;;;;;;;;4442949;32;20220;-54
2022/04/25 01:33:29;;;;;;;9.45;3.55;;;;;;;;;;4455418;32;20279;-55
2022/04/25 01:35:55;;;;;;;9.52;3.10;;;;;;;;;;4458387;32;20232;-54
2022/04/25 01:38:21;;;;;;;10.93;4.10;;;;;;;;;;4447936;32;20232;-53
2022/04/25 01:40:47;;;;;;;10.50;4.35;;;;;;;;;;4448128;32;20627;-53
2022/04/25 01:43:12;;;;;;;12.95;3.28;;;;;;;;;;4447608;32;20216;-53
2022/04/25 01:45:41;;;;;;;11.15;3.03;;;;;;;;;;4444593;32;20296;-53
2022/04/25 01:48:07;;;;;;;11.68;3.35;;;;;;;;;;4433744;32;20272;-54
2022/04/25 01:50:32;;;;;;;8.55;2.55;;;;;;;;;;4448903;32;20580;-54
2022/04/25 01:52:58;;;;;;;10.85;3.03;;;;;;;;;;4442584;32;20329;-54
2022/04/25 01:55:23;;;;;;;6.37;2.45;;;;;;;;;;4447554;32;20227;-54
2022/04/25 01:57:49;;;;;;;9.23;2.90;;;;;;;;;;4440213;32;20204;-54
2022/04/25 02:00:14;;;;;;;12.50;2.95;;;;;;;;;;4446969;32;20362;-55
2022/04/25 02:02:40;;;;;;;13.95;2.85;;;;;;;;;;4447888;32;20252;-55
2022/04/25 02:05:06;;;;;;;9.88;3.22;;;;;;;;;;4453067;32;20363;-55
2022/04/25 02:07:32;;;;;;;13.15;2.75;;;;;;;;;;4448029;32;20209;-54
2022/04/25 02:09:57;;;;;;;16.40;3.35;;;;;;;;;;4447945;32;20632;-53
2022/04/25 02:12:23;;;;;;;11.38;2.85;;;;;;;;;;4432788;32;20260;-52
2022/04/25 02:14:48;;;;;;;9.55;2.25;;;;;;;;;;4442363;32;20234;-53
2022/04/25 02:17:14;;;;;;;4.40;2.47;;;;;;;;;;4448710;32;20240;-54
2022/04/25 02:19:40;;;;;;;14.20;2.92;;;;;;;;;;4441697;32;20376;-52
2022/04/25 02:22:09;;;;;;;6.90;2.80;;;;;;;;;;4433105;32;20311;-54
2022/04/25 02:24:35;;;;;;;11.63;3.00;;;;;;;;;;4444041;32;20220;-54
2022/04/25 02:27:03;;;;;;;9.38;3.45;;;;;;;;;;4448337;32;20542;-53
2022/04/25 02:29:30;;;;;;;7.40;4.60;;;;;;;;;;4454330;32;20228;-55
2022/04/25 02:31:55;;;;;;;13.10;3.67;;;;;;;;;;4448021;32;20304;-53
2022/04/25 02:34:21;;;;;;;7.93;3.10;;;;;;;;;;4444694;32;20225;-54
2022/04/25 02:36:47;;;;;;;16.30;3.45;;;;;;;;;;4447075;32;20262;-54
2022/04/25 02:39:12;;;;;;;7.62;2.90;;;;;;;;;;4447984;32;20208;-53
2022/04/25 02:41:38;;;;;;;7.35;3.10;;;;;;;;;;4450147;32;20299;-55
2022/04/25 02:44:03;;;;;;;11.23;3.62;;;;;;;;;;4428440;32;20263;-54
2022/04/25 02:46:29;;;;;;;11.63;3.62;;;;;;;;;;4444554;32;20287;-53
2022/04/25 02:48:55;;;;;;;8.57;4.10;;;;;;;;;;4447248;32;20262;-53
2022/04/25 02:51:21;;;;;;;20.02;4.82;;;;;;;;;;4441681;32;20259;-53
2022/04/25 02:53:46;;;;;;;10.43;5.32;;;;;;;;;;4444780;32;20232;-53
2022/04/25 02:56:12;;;;;;;24.25;5.85;;;;;;;;;;4447090;32;20236;-53
2022/04/25 02:58:38;;;;;;;14.13;5.03;;;;;;;;;;4442968;32;20215;-53
2022/04/25 03:01:05;;;;;;;17.05;5.40;;;;;;;;;;4439420;32;20224;-53
2022/04/25 03:03:34;;;;;;;20.37;5.40;;;;;;;;;;4446302;32;20236;-53
2022/04/25 03:06:01;;;;;;;11.27;4.72;;;;;;;;;;4445363;32;20371;-55
2022/04/25 03:08:26;;;;;;;12.55;4.07;;;;;;;;;;4443791;32;20309;-55
2022/04/25 03:10:53;;;;;;;5.25;3.03;;;;;;;;;;4441724;32;20833;-53
2022/04/25 03:13:19;;;;;;;10.95;3.83;;;;;;;;;;4445220;32;20593;-53
2022/04/25 03:15:47;;;;;;;8.75;2.90;;;;;;;;;;4458110;32;20268;-52
2022/04/25 03:18:14;;;;;;;5.43;2.50;;;;;;;;;;4443781;32;20251;-52
2022/04/25 03:20:44;;;;;;;15.32;4.12;;;;;;;;;;4436189;32;20289;-52
2022/04/25 03:23:10;;;;;;;11.20;3.60;;;;;;;;;;4440525;32;20279;-52
2022/04/25 03:25:36;;;;;;;18.45;3.75;;;;;;;;;;4446175;32;20330;-54
2022/04/25 03:28:02;;;;;;;14.40;3.83;;;;;;;;;;4430572;32;20787;-52
2022/04/25 03:30:27;;;;;;;11.43;3.70;;;;;;;;;;4446750;32;20263;-54
2022/04/25 03:32:53;;;;;;;11.32;3.75;;;;;;;;;;4446636;32;20580;-54
2022/04/25 03:35:22;;;;;;;11.68;3.92;;;;;;;;;;4446975;32;20393;-53
2022/04/25 03:37:49;;;;;;;9.73;2.92;;;;;;;;;;4446226;32;20288;-54
2022/04/25 03:40:15;;;;;;;14.98;3.47;;;;;;;;;;4443309;32;20577;-55
2022/04/25 03:42:41;;;;;;;17.08;4.53;;;;;;;;;;4445682;32;20216;-56
2022/04/25 03:45:09;;;;;;;16.42;4.15;;;;;;;;;;4437679;32;20219;-55
2022/04/25 03:47:36;;;;;;;11.60;3.35;;;;;;;;;;4445134;32;20249;-53
2022/04/25 03:50:02;;;;;;;12.50;3.35;;;;;;;;;;4441551;32;20959;-54
2022/04/25 03:52:29;;;;;;;15.98;2.97;;;;;;;;;;4428317;32;20268;-54
2022/04/25 03:57:39;;;;;;;13.35;3.90;;;;;;;;;;4432463;32;20364;-55
2022/04/25 04:00:06;;;;;;;16.25;4.72;;;;;;;;;;4446171;32;20216;-54
2022/04/25 04:02:32;;;;;;;18.80;4.55;;;;;;;;;;4443453;32;20295;-53
2022/04/25 04:04:58;;;;;;;17.08;3.70;;;;;;;;;;4444889;32;20744;-53
2022/04/25 04:07:24;;;;;;;13.05;3.10;;;;;;;;;;4440988;32;20283;-52
2022/04/25 04:09:49;;;;;;;17.23;3.97;;;;;;;;;;4446157;32;20529;-52
2022/04/25 04:12:17;;;;;;;15.45;4.37;;;;;;;;;;4444795;32;20807;-52
2022/04/25 04:14:43;;;;;;;24.40;4.95;;;;;;;;;;4442586;32;20204;-54
2022/04/25 04:17:09;;;;;;;31.00;5.68;;;;;;;;;;4445051;32;20309;-54
2022/04/25 04:19:38;;;;;;;15.25;5.18;;;;;;;;;;4439378;32;20220;-54
2022/04/25 04:22:05;;;;;;;16.02;4.65;;;;;;;;;;4436499;32;20669;-52
2022/04/25 04:24:32;;;;;;;31.50;6.20;;;;;;;;;;4445100;32;20266;-54
2022/04/25 04:27:01;;;;;;;17.53;4.30;;;;;;;;;;4445597;32;21104;-52
2022/04/25 04:29:31;;;;;;;18.00;5.57;;;;;;;;;;4443307;32;20241;-52
2022/04/25 04:32:07;;;;;;;13.88;4.62;;;;;;;;;;4445148;32;20338;-53
2022/04/25 04:34:34;;;;;;;19.08;5.37;;;;;;;;;;4448220;32;20277;-53
2022/04/25 04:37:00;;;;;;;17.02;5.62;;;;;;;;;;4431889;32;20232;-54
2022/04/25 04:39:25;;;;;;;16.08;4.57;;;;;;;;;;4441982;32;20244;-53
2022/04/25 04:41:51;;;;;;;19.50;5.65;;;;;;;;;;4444147;32;20296;-54
2022/04/25 04:44:17;;;;;;;11.68;4.47;;;;;;;;;;4440238;32;20254;-54
2022/04/25 04:46:43;;;;;;;14.70;5.47;;;;;;;;;;4444578;32;20716;-53
2022/04/25 04:49:09;;;;;;;13.82;5.70;;;;;;;;;;4447066;32;20659;-53
2022/04/25 04:51:34;;;;;;;14.27;4.57;;;;;;;;;;4442174;32;20680;-53
2022/04/25 04:54:01;;;;;;;22.33;5.50;;;;;;;;;;4436318;32;20212;-54
2022/04/25 04:56:27;;;;;;;13.85;5.60;;;;;;;;;;4445146;32;20266;-54
2022/04/25 04:58:53;;;;;;;18.08;5.50;;;;;;;;;;4447434;32;20229;-55
2022/04/25 05:01:18;;;;;;;19.98;6.32;;;;;;;;;;4443761;32;20411;-54
2022/04/25 05:03:44;;;;;;;15.57;4.73;;;;;;;;;;4446685;32;20235;-53
2022/04/25 05:06:10;;;;;;;17.58;9.20;;;;;;;;;;4448179;32;20236;-53
2022/04/25 05:08:36;;;;;;;14.80;4.95;;;;;;;;;;4449666;32;20379;-54
2022/04/25 05:11:03;;;;;;;17.73;6.95;;;;;;;;;;4431507;32;20268;-53
2022/04/25 05:13:29;;;;;;;12.43;6.45;;;;;;;;;;4435584;32;20291;-53
2022/04/25 05:15:55;;;;;;;10.88;6.60;;;;;;;;;;4446611;32;20494;-53
2022/04/25 05:18:20;;;;;;;14.93;6.28;;;;;;;;;;4449320;32;20271;-54
2022/04/25 05:20:46;;;;;;;15.93;7.10;;;;;;;;;;4452900;32;20364;-54
2022/04/25 05:23:11;;;;;;;13.48;6.12;;;;;;;;;;4446024;32;20333;-53
2022/04/25 05:25:38;;;;;;;24.77;7.68;;;;;;;;;;4454206;32;20256;-52
2022/04/25 05:28:05;;;;;;;20.98;7.45;;;;;;;;;;4444559;32;20248;-52
2022/04/25 05:30:31;;;;;;;23.37;6.93;;;;;;;;;;4437006;32;20282;-52
2022/04/25 05:33:02;;;;;;;23.17;9.10;;;;;;;;;;4441025;32;20228;-52
2022/04/25 05:35:29;;;;;;;21.85;8.35;;;;;;;;;;4448645;32;20664;-53
2022/04/25 05:37:55;;;;;;;23.00;8.13;;;;;;;;;;4445184;32;20217;-53
2022/04/25 05:40:22;;;;;;;17.48;6.18;;;;;;;;;;4420613;32;20411;-53
2022/04/25 05:42:49;;;;;;;18.27;6.05;;;;;;;;;;4443133;32;20384;-54
2022/04/25 05:45:18;;;;;;;24.10;8.18;;;;;;;;;;4442612;32;20235;-53
2022/04/25 05:47:43;;;;;;;24.40;8.63;;;;;;;;;;4443979;32;20802;-52
2022/04/25 05:52:55;;;;;;;14.27;6.07;;;;;;;;;;4436288;32;20285;-53
2022/04/25 05:55:21;;;;;;;11.05;5.62;;;;;;;;;;4439506;32;20330;-53
2022/04/25 05:57:47;;;;;;;22.37;6.90;;;;;;;;;;4447460;32;20213;-54
2022/04/25 06:00:16;;;;;;;24.12;7.78;;;;;;;;;;4435797;32;20375;-52
2022/04/25 06:02:43;;;;;;;28.90;7.95;;;;;;;;;;4429245;32;20265;-53
2022/04/25 06:05:12;;;;;;;15.85;5.43;;;;;;;;;;4446308;32;20204;-53
2022/04/25 06:07:43;;;;;;;13.60;5.18;;;;;;;;;;4440676;32;20248;-52
2022/04/25 06:10:10;;;;;;;19.08;5.78;;;;;;;;;;4449821;32;20636;-53
2022/04/25 06:12:53;;;;;;;21.00;6.75;;;;;;;;;;4432434;32;20687;-53
2022/04/25 06:15:24;;;;;;;17.25;5.22;;;;;;;;;;4443056;32;20271;-55
2022/04/25 06:17:50;;;;;;;16.62;5.60;;;;;;;;;;4432606;32;20792;-53
2022/04/25 06:20:17;;;;;;;11.48;5.35;;;;;;;;;;4442549;32;20338;-54
2022/04/25 06:22:54;;;;;;;9.85;4.30;;;;;;;;;;4438713;32;20271;-54
2022/04/25 06:25:20;;;;;;;17.55;5.57;;;;;;;;;;4442330;32;20244;-53
2022/04/25 06:27:46;;;;;;;18.95;5.62;;;;;;;;;;4436077;32;20475;-54
2022/04/25 06:30:11;;;;;;;13.15;6.10;;;;;;;;;;4434193;32;20212;-53
2022/04/25 06:32:37;;;;;;;23.20;6.68;;;;;;;;;;4434874;32;20356;-56
2022/04/25 06:35:03;;;;;;;7.80;4.00;;;;;;;;;;4442232;32;20201;-54
2022/04/25 06:37:28;;;;;;;17.52;5.03;;;;;;;;;;4442341;32;20251;-54
2022/04/25 06:39:53;;;;;;;10.65;4.18;;;;;;;;;;4444068;32;20276;-54
2022/04/25 06:42:19;;;;;;;14.73;5.30;;;;;;;;;;4443516;32;20248;-54
2022/04/25 06:44:44;;;;;;;15.75;5.57;;;;;;;;;;4437201;32;20303;-54
2022/04/25 06:47:10;;;;;;;8.43;4.22;;;;;;;;;;4443696;32;20300;-54
2022/04/25 06:49:36;;;;;;;12.70;3.75;;;;;;;;;;4442136;32;20803;-53
2022/04/25 06:52:02;;;;;;;14.63;3.50;;;;;;;;;;4435695;32;20335;-54
2022/04/25 06:54:30;;;;;;;16.95;4.10;;;;;;;;;;4444755;32;20211;-54
2022/04/25 06:56:57;;;;;;;13.45;4.05;;;;;;;;;;4444669;32;20262;-54
2022/04/25 06:59:23;;;;;;;8.27;3.42;;;;;;;;;;4435367;32;20244;-55
2022/04/25 07:01:50;;;;;;;21.45;5.57;;;;;;;;;;4444371;32;20247;-54
2022/04/25 07:04:16;;;;;;;13.48;3.08;;;;;;;;;;4434931;32;20220;-54
2022/04/25 07:06:43;;;;;;;13.13;3.87;;;;;;;;;;4439929;32;20347;-54
2022/04/25 07:09:12;;;;;;;20.50;4.03;;;;;;;;;;4443575;32;20213;-54
2022/04/25 07:11:43;;;;;;;10.13;3.97;;;;;;;;;;4441159;32;20271;-54
2022/04/25 07:14:12;;;;;;;17.35;4.15;;;;;;;;;;4438598;32;20211;-54
2022/04/25 07:16:38;;;;;;;9.32;2.83;;;;;;;;;;4434398;32;20515;-54
2022/04/25 07:19:03;;;;;;;23.42;4.53;;;;;;;;;;4414911;32;20634;-55
2022/04/25 07:29:43;;;;;;;16.85;4.12;;;;;;;;;;4442511;32;20262;-54
2022/04/25 07:32:08;;;;;;;22.45;4.57;;;;;;;;;;4442253;32;20248;-54
2022/04/25 07:34:36;;;;;;;17.95;4.53;;;;;;;;;;4447902;32;20309;-53
2022/04/25 07:37:02;;;;;;;26.80;3.62;;;;;;;;;;4448270;32;20224;-54
2022/04/25 07:39:27;;;;;;;15.07;3.67;;;;;;;;;;4446763;32;20717;-54
2022/04/25 07:41:53;;;;;;;26.42;4.25;;;;;;;;;;4436678;32;20232;-55
2022/04/25 07:44:18;;;;;;;13.80;4.37;;;;;;;;;;4432251;32;20406;-54
2022/04/25 07:46:45;;;;;;;18.87;3.90;;;;;;;;;;4443156;32;21048;-53
2022/04/25 07:49:12;;;;;;;17.65;4.35;;;;;;;;;;4444536;32;20224;-53
2022/04/25 07:51:40;;;;;;;21.48;4.70;;;;;;;;;;4448197;32;21418;-54
2022/04/25 07:54:06;;;;;;;26.67;4.20;;;;;;;;;;4447232;32;20275;-55
2022/04/25 07:56:33;;;;;;;20.42;4.18;;;;;;;;;;4441776;32;20370;-54
2022/04/25 07:59:00;;;;;;;11.25;3.08;;;;;;;;;;4445053;32;20217;-54
2022/04/25 08:01:27;;;;;;;20.80;3.37;;;;;;;;;;4447200;32;20259;-54
2022/04/25 08:03:53;;;;;;;9.35;3.58;;;;;;;;;;4436170;32;20246;-54
2022/04/25 08:06:20;;;;;;;32.67;4.35;;;;;;;;;;4430211;32;20249;-54
2022/04/25 08:08:50;;;;;;;20.27;3.37;;;;;;;;;;4440817;32;20404;-55
2022/04/25 08:11:16;;;;;;;18.90;3.83;;;;;;;;;;4445463;32;20271;-55
2022/04/25 08:19:10;;;;;;;16.50;3.40;;;;;;;;;;4438043;32;20258;-54
2022/04/25 08:21:38;;;;;;;14.38;3.50;;;;;;;;;;4422719;32;20414;-55
2022/04/25 08:24:04;;;;;;;23.85;3.25;;;;;;;;;;4436596;32;20239;-55
2022/04/25 08:26:30;;;;;;;25.88;3.70;;;;;;;;;;4446055;32;20262;-55
2022/04/25 08:28:55;;;;;;;18.95;4.07;;;;;;;;;;4442767;32;20288;-55
2022/04/25 08:31:21;;;;;;;31.70;4.62;;;;;;;;;;4429802;32;20308;-55
2022/04/25 08:33:49;;;;;;;26.27;4.05;;;;;;;;;;4446569;32;20382;-55
2022/04/25 08:36:16;;;;;;;20.37;6.22;;;;;;;;;;4444236;32;20279;-55
2022/04/25 08:38:43;;;;;;;24.63;5.97;;;;;;;;;;4449085;32;20338;-55
2022/04/25 08:41:11;;;;;;;39.03;5.57;;;;;;;;;;4449394;32;20231;-55
2022/04/25 08:43:38;;;;;;;14.68;4.03;;;;;;;;;;4447069;32;20268;-55
2022/04/25 08:46:07;;;;;;;18.55;3.17;;;;;;;;;;4431700;32;20275;-55
2022/04/25 08:48:34;;;;;;;30.35;3.97;;;;;;;;;;4448196;32;20275;-55
2022/04/25 08:51:00;;;;;;;16.15;3.85;;;;;;;;;;4447488;32;20266;-55
2022/04/25 08:53:27;;;;;;;25.12;3.97;;;;;;;;;;4450594;32;20306;-54
2022/04/25 08:55:54;;;;;;;34.47;4.20;;;;;;;;;;4450508;32;20711;-54
2022/04/25 08:58:22;;;;;;;33.53;4.75;;;;;;;;;;4434620;32;20253;-54
2022/04/25 09:00:47;;;;;;;27.15;4.62;;;;;;;;;;4448022;32;20254;-55
2022/04/25 09:03:14;;;;;;;26.48;3.47;;;;;;;;;;4452892;32;20339;-54
2022/04/25 09:05:40;;;;;;;25.88;4.28;;;;;;;;;;4447449;32;20243;-55
2022/04/25 09:08:07;;;;;;;24.52;4.43;;;;;;;;;;4445020;32;20716;-56
2022/04/25 09:10:34;;;;;;;16.35;3.97;;;;;;;;;;4441577;32;20232;-54
2022/04/25 09:13:01;;;;;;;12.43;3.03;;;;;;;;;;4442207;32;20291;-54
2022/04/25 09:15:27;;;;;;;20.90;4.55;;;;;;;;;;4446938;32;20228;-54
2022/04/25 09:17:54;;;;;;;24.73;2.97;;;;;;;;;;4434248;32;20659;-54
2022/04/25 09:20:23;;;;;;;43.97;5.95;;;;;;;;;;4427093;32;20263;-54
2022/04/25 09:22:49;;;;;;;22.62;4.40;;;;;;;;;;4449769;32;20284;-54
2022/04/25 09:25:16;;;;;;;20.48;3.25;;;;;;;;;;4447225;32;20665;-54
2022/04/25 09:27:43;;;;;;;21.12;4.97;;;;;;;;;;4449002;32;20295;-55
2022/04/25 09:30:16;;;;;;;15.20;2.97;;;;;;;;;;4446154;32;20709;-54
2022/04/25 09:32:43;;;;;;;21.45;3.83;;;;;;;;;;4433619;32;20227;-54
2022/04/25 09:35:28;;;;;;;24.10;4.95;;;;;;;;;;4441266;32;20255;-54
2022/04/25 09:37:55;;;;;;;18.37;3.45;;;;;;;;;;4442392;32;20311;-53
2022/04/25 09:40:22;;;;;;;23.20;4.57;;;;;;;;;;4448099;32;20236;-54
2022/04/25 09:43:03;;;;;;;23.02;3.47;;;;;;;;;;4447484;32;20216;-54
2022/04/25 09:45:29;;;;;;;23.05;4.30;;;;;;;;;;4436540;32;20240;-54
2022/04/25 09:47:55;;;;;;;27.42;4.40;;;;;;;;;;4432723;32;20276;-53
2022/04/25 09:50:20;;;;;;;19.73;4.32;;;;;;;;;;4446305;32;20299;-54
2022/04/25 09:53:03;;;;;;;26.27;5.87;;;;;;;;;;4448336;32;20295;-54
2022/04/25 09:55:30;;;;;;;27.42;4.57;;;;;;;;;;4455802;32;20276;-54
2022/04/25 09:57:56;;;;;;;18.67;4.72;;;;;;;;;;4462599;32;20284;-54
2022/04/25 10:00:33;;;;;;;27.52;3.45;;;;;;;;;;4448375;32;20387;-54
2022/04/25 10:03:03;;;;;;;15.60;3.10;;;;;;;;;;4442199;32;20220;-54
2022/04/25 10:05:49;;;;;;;33.22;4.37;;;;;;;;;;4447359;32;20266;-54
2022/04/25 10:08:16;;;;;;;39.90;3.95;;;;;;;;;;4449514;32;20201;-55
2022/04/25 10:10:59;;;;;;;12.40;3.20;;;;;;;;;;4448020;32;20243;-55
2022/04/25 10:13:28;;;;;;;22.27;2.65;;;;;;;;;;4449070;32;20224;-55
2022/04/25 10:15:56;;;;;;;15.90;2.90;;;;;;;;;;4446841;32;20275;-55
2022/04/25 10:18:21;;;;;;;22.23;2.97;;;;;;;;;;4449663;32;20205;-54
2022/04/25 10:20:47;;;;;;;15.63;2.60;;;;;;;;;;4449907;32;20251;-55
2022/04/25 10:23:14;;;;;;;16.40;2.70;;;;;;;;;;4449438;32;20306;-54
2022/04/25 10:25:46;;;;;;;11.50;2.42;;;;;;;;;;4448432;32;20755;-54
2022/04/25 10:28:38;;;;;;;24.10;2.92;;;;;;;;;;4435161;32;20252;-55
2022/04/25 10:31:25;;;;;;;14.00;3.05;;;;;;;;;;4429627;32;20263;-55
2022/04/25 10:33:52;;;;;;;10.80;1.90;;;;;;;;;;4444309;32;20597;-55
2022/04/25 10:36:39;;;;;;;24.25;3.40;;;;;;;;;;4445009;32;20286;-55
2022/04/25 10:39:20;;;;;;;14.43;2.22;;;;;;;;;;4433710;32;20228;-56
2022/04/25 10:44:51;;;;;;;24.77;3.15;;;;;;;;;;4436296;32;20310;-54
2022/04/25 10:47:19;;;;;;;11.18;1.92;;;;;;;;;;4448074;32;20227;-54
2022/04/25 10:49:48;;;;;;;24.45;2.10;;;;;;;;;;4444758;32;20276;-55
2022/04/25 10:52:42;;;;;;;6.12;1.60;;;;;;;;;;4448024;32;20252;-54
2022/04/25 10:55:14;;;;;;;14.32;2.03;;;;;;;;;;4453258;32;20208;-55
2022/04/25 10:58:01;;;;;;;20.73;2.35;;;;;;;;;;4451287;32;20228;-55
2022/04/25 11:00:43;;;;;;;11.27;1.23;;;;;;;;;;4446618;32;20291;-55
2022/04/25 11:03:18;;;;;;;25.15;2.70;;;;;;;;;;4447733;32;20315;-55
2022/04/25 11:05:44;;;;;;;12.40;2.10;;;;;;;;;;4447021;32;20215;-55
2022/04/25 11:08:18;;;;;;;6.87;1.60;;;;;;;;;;4446638;32;20702;-55
2022/04/25 11:10:45;;;;;;;10.25;2.25;;;;;;;;;;4432477;32;20737;-55
2022/04/25 11:13:12;;;;;;;5.43;1.27;;;;;;;;;;4432518;32;20208;-54
2022/04/25 11:15:42;;;;;;;9.43;1.52;;;;;;;;;;4442358;32;20263;-55
2022/04/25 11:18:36;;;;;;;9.02;2.28;;;;;;;;;;4438401;32;20196;-55
2022/04/25 11:21:08;;;;;;;8.05;1.60;;;;;;;;;;4437751;32;20734;-55
2022/04/25 11:23:51;;;;;;;18.40;1.60;;;;;;;;;;4441100;32;20534;-55
2022/04/25 11:26:23;;;;;;;6.90;1.52;;;;;;;;;;4437208;32;20307;-55
2022/04/25 11:29:11;;;;;;;4.10;1.33;;;;;;;;;;4446537;32;20667;-55
2022/04/25 11:31:38;;;;;;;12.40;1.30;;;;;;;;;;4448257;32;20300;-56
2022/04/25 11:34:11;;;;;;;13.65;2.10;;;;;;;;;;4432423;32;20200;-56
2022/04/25 11:36:41;;;;;;;5.78;1.30;;;;;;;;;;4422394;32;20337;-54
2022/04/25 11:41:52;;;;;;;18.02;1.48;;;;;;;;;;4447975;32;20747;-55
2022/04/25 11:44:17;;;;;;;4.22;0.77;;;;;;;;;;4447674;32;20660;-55
2022/04/25 11:46:43;;;;;;;11.68;2.30;;;;;;;;;;4445746;32;20292;-54
2022/04/25 11:49:09;;;;;;;12.43;1.73;;;;;;;;;;4446426;32;20338;-57
2022/04/25 11:51:35;;;;;;;6.95;1.10;;;;;;;;;;4446207;32;20444;-54
2022/04/25 11:54:06;;;;;;;8.35;1.67;;;;;;;;;;4447804;32;20264;-54
2022/04/25 11:56:34;;;;;;;2.17;1.15;;;;;;;;;;4447998;32;20243;-55
2022/04/25 11:59:06;;;;;;;10.65;1.73;;;;;;;;;;4447785;32;20280;-54
2022/04/25 12:01:32;;;;;;;7.18;1.10;;;;;;;;;;4446831;32;20549;-55
2022/04/25 12:04:16;;;;;;;8.55;1.98;;;;;;;;;;4448006;32;20268;-54
2022/04/25 12:06:57;;;;;;;6.03;2.20;;;;;;;;;;4447175;32;20706;-54
2022/04/25 12:17:46;;;;;;;8.32;1.67;;;;;;;;;;4445189;32;20300;-54
2022/04/25 12:20:15;;;;;;;5.50;0.95;;;;;;;;;;4443822;32;20213;-54
2022/04/25 12:22:51;;;;;;;10.73;1.35;;;;;;;;;;4446079;32;20216;-54
2022/04/25 12:25:22;;;;;;;6.85;1.23;;;;;;;;;;4450627;32;20212;-54
2022/04/25 12:28:04;;;;;;;10.90;1.42;;;;;;;;;;4446935;32;20644;-55
2022/04/25 12:30:42;;;;;;;2.87;1.05;;;;;;;;;;4445078;32;20806;-54
2022/04/25 12:33:09;;;;;;;13.55;1.37;;;;;;;;;;4431696;32;21208;-55
2022/04/25 12:35:38;;;;;;;5.00;1.05;;;;;;;;;;4448845;32;20290;-56
2022/04/25 12:38:05;;;;;;;5.20;1.12;;;;;;;;;;4445281;32;20550;-56
2022/04/25 12:40:32;;;;;;;5.10;1.15;;;;;;;;;;4442498;32;20625;-54
2022/04/25 12:42:58;;;;;;;7.35;1.00;;;;;;;;;;4448660;32;20589;-54
2022/04/25 12:45:24;;;;;;;5.00;1.25;;;;;;;;;;4447153;32;20229;-54
2022/04/25 12:47:57;;;;;;;2.53;0.93;;;;;;;;;;4449414;32;20557;-54
2022/04/25 12:50:44;;;;;;;12.85;2.03;;;;;;;;;;4445493;32;20213;-55
2022/04/25 12:53:10;;;;;;;2.55;1.05;;;;;;;;;;4438402;32;20216;-55
2022/04/25 12:55:47;;;;;;;5.37;1.45;;;;;;;;;;4441122;32;20329;-55
2022/04/25 12:58:13;;;;;;;5.22;1.73;;;;;;;;;;4443304;32;20235;-55
2022/04/25 13:00:47;;;;;;;2.28;0.90;;;;;;;;;;4444860;32;20286;-55
2022/04/25 13:03:13;;;;;;;9.75;2.08;;;;;;;;;;4443349;32;20475;-55
2022/04/25 13:05:39;;;;;;;14.20;2.05;;;;;;;;;;4422810;32;20606;-55
2022/04/25 13:08:05;;;;;;;4.18;1.40;;;;;;;;;;4445932;32;20240;-55
2022/04/25 13:10:31;;;;;;;4.65;1.12;;;;;;;;;;4445888;32;20276;-55
2022/04/25 13:12:57;;;;;;;7.40;1.08;;;;;;;;;;4443989;32;20377;-55
2022/04/25 13:15:28;;;;;;;8.80;1.70;;;;;;;;;;4436788;32;20914;-55
2022/04/25 13:17:56;;;;;;;7.87;1.83;;;;;;;;;;4444994;32;20251;-55
2022/04/25 13:20:25;;;;;;;3.67;1.42;;;;;;;;;;4446084;32;20277;-55
2022/04/25 13:22:51;;;;;;;6.25;1.55;;;;;;;;;;4429692;32;20276;-55
2022/04/25 13:25:20;;;;;;;2.42;1.17;;;;;;;;;;4444042;32;20789;-55
2022/04/25 13:27:45;;;;;;;25.70;3.58;;;;;;;;;;4421898;32;20306;-55
2022/04/25 13:30:13;;;;;;;6.43;1.37;;;;;;;;;;4441139;32;20287;-55
2022/04/25 13:32:39;;;;;;;11.50;2.17;;;;;;;;;;4434060;32;20589;-55
2022/04/25 13:35:06;;;;;;;5.03;1.00;;;;;;;;;;4431800;32;20341;-55
2022/04/25 13:37:32;;;;;;;6.65;1.50;;;;;;;;;;4437949;32;20751;-54
2022/04/25 13:39:58;;;;;;;3.47;1.85;;;;;;;;;;4431213;32;20302;-56
2022/04/25 13:42:24;;;;;;;13.02;1.48;;;;;;;;;;4432204;32;20225;-55
2022/04/25 13:44:50;;;;;;;6.85;1.73;;;;;;;;;;4432202;32;20287;-56
2022/04/25 13:47:15;;;;;;;7.70;2.33;;;;;;;;;;4436636;32;20310;-55
2022/04/25 13:49:41;;;;;;;7.47;1.90;;;;;;;;;;4435521;32;20288;-56
2022/04/25 13:52:07;;;;;;;7.30;1.65;;;;;;;;;;4431907;32;20253;-55
2022/04/25 13:54:33;;;;;;;8.90;1.45;;;;;;;;;;4431313;32;20287;-54
2022/04/25 13:56:59;;;;;;;10.80;1.67;;;;;;;;;;4439031;32;20630;-54
2022/04/25 13:59:25;;;;;;;9.82;1.55;;;;;;;;;;4443628;32;20352;-55
2022/04/25 14:01:50;;;;;;;13.13;1.33;;;;;;;;;;4448170;32;20224;-55
2022/04/25 14:04:16;;;;;;;16.50;2.15;;;;;;;;;;4423883;32;20299;-55
2022/04/25 14:06:41;;;;;;;10.65;3.10;;;;;;;;;;4444167;32;20568;-54
2022/04/25 14:09:07;;;;;;;13.60;1.95;;;;;;;;;;4445570;32;20625;-55
2022/04/25 14:11:33;;;;;;;6.80;1.20;;;;;;;;;;4449121;32;20274;-54
2022/04/25 14:13:59;;;;;;;5.35;1.77;;;;;;;;;;4448897;32;20258;-55
2022/04/25 14:16:25;;;;;;;8.68;1.48;;;;;;;;;;4435933;32;20959;-54
2022/04/25 14:18:51;;;;;;;7.85;1.65;;;;;;;;;;4447388;32;20205;-55
2022/04/25 14:21:17;;;;;;;13.35;1.98;;;;;;;;;;4443136;32;20251;-55
2022/04/25 14:23:43;;;;;;;7.78;1.62;;;;;;;;;;4448614;32;20223;-54
2022/04/25 14:26:09;;;;;;;9.52;1.30;;;;;;;;;;4429782;32;20263;-55
2022/04/25 14:28:35;;;;;;;8.93;1.42;;;;;;;;;;4448536;32;20732;-55
2022/04/25 14:31:01;;;;;;;7.78;1.60;;;;;;;;;;4448884;32;20350;-55
2022/04/25 14:33:27;;;;;;;7.05;1.05;;;;;;;;;;4446982;32;20579;-56
2022/04/25 14:35:53;;;;;;;11.18;2.28;;;;;;;;;;4434147;32;20258;-54
2022/04/25 14:38:22;;;;;;;13.50;2.22;;;;;;;;;;4440809;32;20231;-55
2022/04/25 14:40:49;;;;;;;7.18;1.75;;;;;;;;;;4433442;32;20285;-55
2022/04/25 14:43:15;;;;;;;9.38;1.70;;;;;;;;;;4438542;32;20223;-54
2022/04/25 14:45:41;;;;;;;6.05;1.85;;;;;;;;;;4433229;32;20266;-54
2022/04/25 14:48:07;;;;;;;6.85;1.90;;;;;;;;;;4448500;32;20264;-55
2022/04/25 14:56:00;;;;;;;15.85;1.83;;;;;;;;;;4434692;32;20715;-54
2022/04/25 14:58:26;;;;;;;7.35;1.48;;;;;;;;;;4440801;32;20284;-54
2022/04/25 15:00:53;;;;;;;8.40;2.80;;;;;;;;;;4447366;32;20240;-56
2022/04/25 15:03:19;;;;;;;11.90;1.85;;;;;;;;;;4445841;32;20212;-54
2022/04/25 15:05:44;;;;;;;4.50;1.10;;;;;;;;;;4446069;32;20999;-55
2022/04/25 15:08:11;;;;;;;11.27;1.52;;;;;;;;;;4438086;32;20276;-55
2022/04/25 15:10:41;;;;;;;10.57;1.77;;;;;;;;;;4440051;32;20737;-55
2022/04/25 15:13:09;;;;;;;12.13;1.83;;;;;;;;;;4448361;32;20714;-56
2022/04/25 15:15:36;;;;;;;11.88;1.75;;;;;;;;;;4446124;32;20687;-54
2022/04/25 15:18:02;;;;;;;13.18;2.22;;;;;;;;;;4447186;32;20236;-54
2022/04/25 15:20:28;;;;;;;8.60;2.25;;;;;;;;;;4448170;32;20213;-54
2022/04/25 15:22:53;;;;;;;8.65;1.25;;;;;;;;;;4447531;32;20192;-55